sensor_id;sensor_type;location;lat;lon;timestamp;temperature;humidity
52769;DHT22;40471;44.534;18.644;2023-11-22T00:01:03;10.00;99.90
52769;DHT22;40471;44.534;18.644;2023-11-22T00:03:29;10.00;99.90
52769;DHT22;40471;44.534;18.644;2023-11-22T00:05:55;10.00;99.90
52769;DHT22;40471;44.534;18.644;2023-11-22T00:08:20;10.00;99.90
52769;DHT22;40471;44.534;18.644;2023-11-22T00:10:46;10.00;99.90
52769;DHT22;40471;44.534;18.644;2023-11-22T00:13:12;11.20;99.90
52769;DHT22;40471;44.534;18.644;2023-11-22T00:15:38;10.10;99.90
52769;DHT22;40471;44.534;18.644;2023-11-22T00:18:04;10.00;99.90
52769;DHT22;40471;44.534;18.644;2023-11-22T00:20:30;10.10;99.90
52769;DHT22;40471;44.534;18.644;2023-11-22T00:22:56;10.10;99.90
52769;DHT22;40471;44.534;18.644;2023-11-22T00:25:22;10.10;99.90
52769;DHT22;40471;44.534;18.644;2023-11-22T00:27:48;10.00;99.90
52769;DHT22;40471;44.534;18.644;2023-11-22T00:30:14;10.10;99.90
52769;DHT22;40471;44.534;18.644;2023-11-22T00:32:40;10.10;99.90
52769;DHT22;40471;44.534;18.644;2023-11-22T00:35:07;10.00;99.90
52769;DHT22;40471;44.534;18.644;2023-11-22T00:37:33;10.10;99.90
52769;DHT22;40471;44.534;18.644;2023-11-22T00:40:02;10.00;99.90
52769;DHT22;40471;44.534;18.644;2023-11-22T00:42:40;10.10;99.90
52769;DHT22;40471;44.534;18.644;2023-11-22T00:45:09;10.10;99.90
52769;DHT22;40471;44.534;18.644;2023-11-22T00:47:35;10.00;99.90
52769;DHT22;40471;44.534;18.644;2023-11-22T00:50:02;10.00;99.90
52769;DHT22;40471;44.534;18.644;2023-11-22T00:52:30;10.00;99.90
52769;DHT22;40471;44.534;18.644;2023-11-22T00:54:55;10.10;99.90
52769;DHT22;40471;44.534;18.644;2023-11-22T00:57:21;10.00;99.90
52769;DHT22;40471;44.534;18.644;2023-11-22T00:59:47;10.00;99.90
52769;DHT22;40471;44.534;18.644;2023-11-22T01:02:13;10.10;99.90
52769;DHT22;40471;44.534;18.644;2023-11-22T01:04:39;10.00;99.90
52769;DHT22;40471;44.534;18.644;2023-11-22T01:07:05;10.10;99.90
52769;DHT22;40471;44.534;18.644;2023-11-22T01:09:32;10.10;99.90
52769;DHT22;40471;44.534;18.644;2023-11-22T01:11:59;10.20;99.90
52769;DHT22;40471;44.534;18.644;2023-11-22T01:14:25;10.10;99.90
52769;DHT22;40471;44.534;18.644;2023-11-22T01:16:52;10.00;99.90
52769;DHT22;40471;44.534;18.644;2023-11-22T01:19:18;10.10;99.90
52769;DHT22;40471;44.534;18.644;2023-11-22T01:21:43;10.10;99.90
52769;DHT22;40471;44.534;18.644;2023-11-22T01:24:09;10.10;99.90
52769;DHT22;40471;44.534;18.644;2023-11-22T01:26:35;10.30;99.90
52769;DHT22;40471;44.534;18.644;2023-11-22T01:29:01;10.00;99.90
52769;DHT22;40471;44.534;18.644;2023-11-22T01:31:28;10.00;99.90
52769;DHT22;40471;44.534;18.644;2023-11-22T01:33:54;8.70;99.90
52769;DHT22;40471;44.534;18.644;2023-11-22T01:36:20;10.00;99.90
52769;DHT22;40471;44.534;18.644;2023-11-22T01:38:46;10.10;99.90
52769;DHT22;40471;44.534;18.644;2023-11-22T01:41:13;10.10;99.90
52769;DHT22;40471;44.534;18.644;2023-11-22T01:43:39;10.10;99.90
52769;DHT22;40471;44.534;18.644;2023-11-22T01:46:10;10.00;99.90
52769;DHT22;40471;44.534;18.644;2023-11-22T01:48:43;10.00;99.90
52769;DHT22;40471;44.534;18.644;2023-11-22T01:51:09;10.10;99.90
52769;DHT22;40471;44.534;18.644;2023-11-22T01:53:35;10.10;99.90
52769;DHT22;40471;44.534;18.644;2023-11-22T01:56:01;10.00;99.90
52769;DHT22;40471;44.534;18.644;2023-11-22T01:58:27;10.00;99.90
52769;DHT22;40471;44.534;18.644;2023-11-22T02:00:53;10.00;99.90
52769;DHT22;40471;44.534;18.644;2023-11-22T02:03:19;10.00;99.90
52769;DHT22;40471;44.534;18.644;2023-11-22T02:05:46;10.00;99.90
52769;DHT22;40471;44.534;18.644;2023-11-22T02:08:12;9.90;99.90
52769;DHT22;40471;44.534;18.644;2023-11-22T02:10:40;9.90;99.90
52769;DHT22;40471;44.534;18.644;2023-11-22T02:13:06;9.90;99.90
52769;DHT22;40471;44.534;18.644;2023-11-22T02:15:35;10.00;99.90
52769;DHT22;40471;44.534;18.644;2023-11-22T02:18:02;10.00;99.90
52769;DHT22;40471;44.534;18.644;2023-11-22T02:20:30;10.10;99.90
52769;DHT22;40471;44.534;18.644;2023-11-22T02:22:56;10.20;99.90
52769;DHT22;40471;44.534;18.644;2023-11-22T02:25:22;10.20;99.90
52769;DHT22;40471;44.534;18.644;2023-11-22T02:27:48;10.20;99.90
52769;DHT22;40471;44.534;18.644;2023-11-22T02:30:14;10.30;99.90
52769;DHT22;40471;44.534;18.644;2023-11-22T02:32:41;10.30;99.90
52769;DHT22;40471;44.534;18.644;2023-11-22T02:35:07;10.20;99.90
52769;DHT22;40471;44.534;18.644;2023-11-22T02:37:36;10.10;99.90
52769;DHT22;40471;44.534;18.644;2023-11-22T02:40:18;10.10;99.90
52769;DHT22;40471;44.534;18.644;2023-11-22T02:42:48;10.10;99.90
52769;DHT22;40471;44.534;18.644;2023-11-22T02:45:16;10.10;99.90
52769;DHT22;40471;44.534;18.644;2023-11-22T02:47:43;10.10;99.90
52769;DHT22;40471;44.534;18.644;2023-11-22T02:50:16;10.20;99.90
52769;DHT22;40471;44.534;18.644;2023-11-22T02:52:42;10.20;99.90
52769;DHT22;40471;44.534;18.644;2023-11-22T02:55:09;10.20;99.90
52769;DHT22;40471;44.534;18.644;2023-11-22T02:57:38;10.30;99.90
52769;DHT22;40471;44.534;18.644;2023-11-22T03:00:08;10.20;99.90
52769;DHT22;40471;44.534;18.644;2023-11-22T03:02:35;10.30;99.90
52769;DHT22;40471;44.534;18.644;2023-11-22T03:05:01;10.20;99.90
52769;DHT22;40471;44.534;18.644;2023-11-22T03:07:27;10.30;99.90
52769;DHT22;40471;44.534;18.644;2023-11-22T03:09:53;10.10;99.90
52769;DHT22;40471;44.534;18.644;2023-11-22T03:12:20;10.00;99.90
52769;DHT22;40471;44.534;18.644;2023-11-22T03:14:46;9.90;99.90
52769;DHT22;40471;44.534;18.644;2023-11-22T03:17:14;10.00;99.90
52769;DHT22;40471;44.534;18.644;2023-11-22T03:19:39;10.10;99.90
52769;DHT22;40471;44.534;18.644;2023-11-22T03:22:06;10.00;99.90
52769;DHT22;40471;44.534;18.644;2023-11-22T03:24:32;10.20;99.90
52769;DHT22;40471;44.534;18.644;2023-11-22T03:27:02;10.00;99.90
52769;DHT22;40471;44.534;18.644;2023-11-22T03:29:29;10.10;99.90
52769;DHT22;40471;44.534;18.644;2023-11-22T03:31:55;10.10;99.90
52769;DHT22;40471;44.534;18.644;2023-11-22T03:34:21;10.00;99.90
52769;DHT22;40471;44.534;18.644;2023-11-22T03:36:47;10.10;99.90
52769;DHT22;40471;44.534;18.644;2023-11-22T03:39:12;10.10;99.90
52769;DHT22;40471;44.534;18.644;2023-11-22T03:41:41;10.10;99.90
52769;DHT22;40471;44.534;18.644;2023-11-22T03:44:07;10.20;99.90
52769;DHT22;40471;44.534;18.644;2023-11-22T03:46:36;10.20;99.90
52769;DHT22;40471;44.534;18.644;2023-11-22T03:49:04;10.20;99.90
52769;DHT22;40471;44.534;18.644;2023-11-22T03:51:30;10.10;99.90
52769;DHT22;40471;44.534;18.644;2023-11-22T03:53:56;10.10;99.90
52769;DHT22;40471;44.534;18.644;2023-11-22T03:56:21;10.20;99.90
52769;DHT22;40471;44.534;18.644;2023-11-22T03:58:47;10.20;99.90
52769;DHT22;40471;44.534;18.644;2023-11-22T04:01:14;10.10;99.90
52769;DHT22;40471;44.534;18.644;2023-11-22T04:03:41;9.20;99.90
52769;DHT22;40471;44.534;18.644;2023-11-22T04:06:07;10.10;99.90
52769;DHT22;40471;44.534;18.644;2023-11-22T04:08:33;10.10;99.90
52769;DHT22;40471;44.534;18.644;2023-11-22T04:10:59;10.10;99.90
52769;DHT22;40471;44.534;18.644;2023-11-22T04:13:25;10.10;99.90
52769;DHT22;40471;44.534;18.644;2023-11-22T04:15:51;10.10;99.90
52769;DHT22;40471;44.534;18.644;2023-11-22T04:18:16;10.20;99.90
52769;DHT22;40471;44.534;18.644;2023-11-22T04:20:42;10.20;99.90
52769;DHT22;40471;44.534;18.644;2023-11-22T04:23:08;10.20;99.90
52769;DHT22;40471;44.534;18.644;2023-11-22T04:25:37;10.20;99.90
52769;DHT22;40471;44.534;18.644;2023-11-22T04:28:03;10.20;99.90
52769;DHT22;40471;44.534;18.644;2023-11-22T04:30:29;10.30;99.90
52769;DHT22;40471;44.534;18.644;2023-11-22T04:32:54;10.20;99.90
52769;DHT22;40471;44.534;18.644;2023-11-22T04:35:20;10.20;99.90
52769;DHT22;40471;44.534;18.644;2023-11-22T04:37:46;10.20;99.90
52769;DHT22;40471;44.534;18.644;2023-11-22T04:40:12;10.20;99.90
52769;DHT22;40471;44.534;18.644;2023-11-22T04:42:40;10.30;99.90
52769;DHT22;40471;44.534;18.644;2023-11-22T04:45:06;10.30;99.90
52769;DHT22;40471;44.534;18.644;2023-11-22T04:47:33;10.30;99.90
52769;DHT22;40471;44.534;18.644;2023-11-22T04:49:58;10.30;99.90
52769;DHT22;40471;44.534;18.644;2023-11-22T04:52:24;10.30;99.90
52769;DHT22;40471;44.534;18.644;2023-11-22T04:54:50;10.30;99.90
52769;DHT22;40471;44.534;18.644;2023-11-22T05:14:06;10.20;99.90
52769;DHT22;40471;44.534;18.644;2023-11-22T05:16:32;10.20;99.90
52769;DHT22;40471;44.534;18.644;2023-11-22T05:18:59;10.20;99.90
52769;DHT22;40471;44.534;18.644;2023-11-22T05:21:25;10.20;99.90
52769;DHT22;40471;44.534;18.644;2023-11-22T05:23:50;10.20;99.90
52769;DHT22;40471;44.534;18.644;2023-11-22T05:26:18;10.30;99.90
52769;DHT22;40471;44.534;18.644;2023-11-22T05:28:45;10.30;99.90
52769;DHT22;40471;44.534;18.644;2023-11-22T05:31:13;10.30;99.90
52769;DHT22;40471;44.534;18.644;2023-11-22T05:33:39;10.30;99.90
52769;DHT22;40471;44.534;18.644;2023-11-22T05:36:08;10.20;99.90
52769;DHT22;40471;44.534;18.644;2023-11-22T05:38:34;10.30;99.90
52769;DHT22;40471;44.534;18.644;2023-11-22T05:41:02;10.20;99.90
52769;DHT22;40471;44.534;18.644;2023-11-22T05:43:28;10.20;99.90
52769;DHT22;40471;44.534;18.644;2023-11-22T05:45:54;10.20;99.90
52769;DHT22;40471;44.534;18.644;2023-11-22T05:48:19;10.20;99.90
52769;DHT22;40471;44.534;18.644;2023-11-22T05:50:46;10.20;99.90
52769;DHT22;40471;44.534;18.644;2023-11-22T05:53:12;10.20;99.90
52769;DHT22;40471;44.534;18.644;2023-11-22T05:55:38;10.10;99.90
52769;DHT22;40471;44.534;18.644;2023-11-22T05:58:04;10.10;99.90
52769;DHT22;40471;44.534;18.644;2023-11-22T06:00:30;10.20;99.90
52769;DHT22;40471;44.534;18.644;2023-11-22T06:02:55;10.20;99.90
52769;DHT22;40471;44.534;18.644;2023-11-22T06:05:21;10.20;99.90
52769;DHT22;40471;44.534;18.644;2023-11-22T06:07:47;10.20;99.90
52769;DHT22;40471;44.534;18.644;2023-11-22T06:10:13;10.20;99.90
52769;DHT22;40471;44.534;18.644;2023-11-22T06:12:41;10.20;99.90
52769;DHT22;40471;44.534;18.644;2023-11-22T06:15:07;9.50;99.90
52769;DHT22;40471;44.534;18.644;2023-11-22T06:17:33;10.20;99.90
52769;DHT22;40471;44.534;18.644;2023-11-22T06:19:59;10.30;99.90
52769;DHT22;40471;44.534;18.644;2023-11-22T06:22:25;10.30;99.90
52769;DHT22;40471;44.534;18.644;2023-11-22T06:24:50;10.30;99.90
52769;DHT22;40471;44.534;18.644;2023-11-22T06:27:16;10.30;99.90
52769;DHT22;40471;44.534;18.644;2023-11-22T06:29:42;10.40;99.90
52769;DHT22;40471;44.534;18.644;2023-11-22T06:32:09;10.40;99.90
52769;DHT22;40471;44.534;18.644;2023-11-22T06:34:36;10.40;99.90
52769;DHT22;40471;44.534;18.644;2023-11-22T06:37:02;10.50;99.90
52769;DHT22;40471;44.534;18.644;2023-11-22T06:39:28;10.40;99.90
52769;DHT22;40471;44.534;18.644;2023-11-22T06:41:54;10.50;99.90
52769;DHT22;40471;44.534;18.644;2023-11-22T06:44:19;10.50;99.90
52769;DHT22;40471;44.534;18.644;2023-11-22T06:46:45;10.50;99.90
52769;DHT22;40471;44.534;18.644;2023-11-22T06:49:11;10.50;99.90
52769;DHT22;40471;44.534;18.644;2023-11-22T06:51:36;10.50;99.90
52769;DHT22;40471;44.534;18.644;2023-11-22T06:54:02;10.60;99.90
52769;DHT22;40471;44.534;18.644;2023-11-22T06:56:29;10.50;99.90
52769;DHT22;40471;44.534;18.644;2023-11-22T06:58:54;10.50;99.90
52769;DHT22;40471;44.534;18.644;2023-11-22T07:01:23;10.60;99.90
52769;DHT22;40471;44.534;18.644;2023-11-22T07:03:51;10.50;99.90
52769;DHT22;40471;44.534;18.644;2023-11-22T07:06:18;10.50;99.90
52769;DHT22;40471;44.534;18.644;2023-11-22T07:08:47;10.60;99.90
52769;DHT22;40471;44.534;18.644;2023-11-22T07:11:12;10.50;99.90
52769;DHT22;40471;44.534;18.644;2023-11-22T07:13:39;10.60;99.90
52769;DHT22;40471;44.534;18.644;2023-11-22T07:16:06;10.60;99.90
52769;DHT22;40471;44.534;18.644;2023-11-22T07:18:34;10.60;99.90
52769;DHT22;40471;44.534;18.644;2023-11-22T07:20:59;10.70;99.90
52769;DHT22;40471;44.534;18.644;2023-11-22T07:23:25;10.70;99.90
52769;DHT22;40471;44.534;18.644;2023-11-22T07:25:54;10.70;99.90
52769;DHT22;40471;44.534;18.644;2023-11-22T07:28:20;10.70;99.90
52769;DHT22;40471;44.534;18.644;2023-11-22T07:30:46;10.80;99.90
52769;DHT22;40471;44.534;18.644;2023-11-22T07:33:14;10.70;99.90
52769;DHT22;40471;44.534;18.644;2023-11-22T07:35:44;10.80;99.90
52769;DHT22;40471;44.534;18.644;2023-11-22T07:38:09;10.80;99.90
52769;DHT22;40471;44.534;18.644;2023-11-22T07:40:36;11.00;99.90
52769;DHT22;40471;44.534;18.644;2023-11-22T07:43:02;10.80;99.90
52769;DHT22;40471;44.534;18.644;2023-11-22T07:45:31;10.90;99.90
52769;DHT22;40471;44.534;18.644;2023-11-22T07:47:57;11.00;99.90
52769;DHT22;40471;44.534;18.644;2023-11-22T07:50:26;11.00;99.90
52769;DHT22;40471;44.534;18.644;2023-11-22T07:52:52;11.00;99.90
52769;DHT22;40471;44.534;18.644;2023-11-22T07:55:18;11.00;99.90
52769;DHT22;40471;44.534;18.644;2023-11-22T07:57:44;12.10;99.90
52769;DHT22;40471;44.534;18.644;2023-11-22T08:00:11;11.00;99.90
52769;DHT22;40471;44.534;18.644;2023-11-22T08:02:38;11.10;99.90
52769;DHT22;40471;44.534;18.644;2023-11-22T08:05:08;11.00;99.90
52769;DHT22;40471;44.534;18.644;2023-11-22T08:07:35;11.00;99.90
52769;DHT22;40471;44.534;18.644;2023-11-22T08:10:05;10.90;99.90
52769;DHT22;40471;44.534;18.644;2023-11-22T08:12:35;10.80;99.90
52769;DHT22;40471;44.534;18.644;2023-11-22T08:15:03;10.80;99.90
52769;DHT22;40471;44.534;18.644;2023-11-22T08:17:29;10.80;99.90
52769;DHT22;40471;44.534;18.644;2023-11-22T08:19:58;10.70;99.90
52769;DHT22;40471;44.534;18.644;2023-11-22T08:22:24;10.80;99.90
52769;DHT22;40471;44.534;18.644;2023-11-22T08:24:53;10.70;99.90
52769;DHT22;40471;44.534;18.644;2023-11-22T08:27:21;10.80;99.90
52769;DHT22;40471;44.534;18.644;2023-11-22T08:29:47;10.90;99.90
52769;DHT22;40471;44.534;18.644;2023-11-22T08:32:13;10.90;99.90
52769;DHT22;40471;44.534;18.644;2023-11-22T08:34:39;10.90;99.90
52769;DHT22;40471;44.534;18.644;2023-11-22T08:37:06;11.00;99.90
52769;DHT22;40471;44.534;18.644;2023-11-22T08:39:32;10.90;99.90
52769;DHT22;40471;44.534;18.644;2023-11-22T08:41:59;10.20;99.90
52769;DHT22;40471;44.534;18.644;2023-11-22T08:44:25;10.80;99.90
52769;DHT22;40471;44.534;18.644;2023-11-22T08:46:51;11.00;99.90
52769;DHT22;40471;44.534;18.644;2023-11-22T08:49:16;11.00;99.90
52769;DHT22;40471;44.534;18.644;2023-11-22T08:51:42;11.00;99.90
52769;DHT22;40471;44.534;18.644;2023-11-22T08:54:08;11.10;99.90
52769;DHT22;40471;44.534;18.644;2023-11-22T08:56:34;11.00;99.90
52769;DHT22;40471;44.534;18.644;2023-11-22T08:59:01;11.10;99.90
52769;DHT22;40471;44.534;18.644;2023-11-22T09:01:29;11.10;99.90
52769;DHT22;40471;44.534;18.644;2023-11-22T09:03:55;11.10;99.90
52769;DHT22;40471;44.534;18.644;2023-11-22T09:06:22;11.10;99.90
52769;DHT22;40471;44.534;18.644;2023-11-22T09:08:49;11.00;99.90
52769;DHT22;40471;44.534;18.644;2023-11-22T09:11:15;10.90;99.90
52769;DHT22;40471;44.534;18.644;2023-11-22T09:13:42;11.00;99.90
52769;DHT22;40471;44.534;18.644;2023-11-22T09:16:08;10.70;99.90
52769;DHT22;40471;44.534;18.644;2023-11-22T09:18:34;12.00;99.90
52769;DHT22;40471;44.534;18.644;2023-11-22T09:21:00;10.60;99.90
52769;DHT22;40471;44.534;18.644;2023-11-22T09:23:25;10.70;99.90
52769;DHT22;40471;44.534;18.644;2023-11-22T09:25:52;10.70;99.90
52769;DHT22;40471;44.534;18.644;2023-11-22T09:28:18;10.80;99.90
52769;DHT22;40471;44.534;18.644;2023-11-22T09:30:45;10.90;99.90
52769;DHT22;40471;44.534;18.644;2023-11-22T09:33:12;10.90;99.90
52769;DHT22;40471;44.534;18.644;2023-11-22T09:35:40;10.90;99.90
52769;DHT22;40471;44.534;18.644;2023-11-22T09:38:08;11.00;99.90
52769;DHT22;40471;44.534;18.644;2023-11-22T09:40:40;10.90;99.90
52769;DHT22;40471;44.534;18.644;2023-11-22T09:43:06;10.90;99.90
52769;DHT22;40471;44.534;18.644;2023-11-22T09:45:33;10.80;99.90
52769;DHT22;40471;44.534;18.644;2023-11-22T09:47:59;10.80;99.90
52769;DHT22;40471;44.534;18.644;2023-11-22T09:50:26;10.80;99.90
52769;DHT22;40471;44.534;18.644;2023-11-22T09:52:57;10.80;99.90
52769;DHT22;40471;44.534;18.644;2023-11-22T09:55:28;10.70;99.90
52769;DHT22;40471;44.534;18.644;2023-11-22T09:57:58;10.80;99.90
52769;DHT22;40471;44.534;18.644;2023-11-22T10:00:24;10.80;99.90
52769;DHT22;40471;44.534;18.644;2023-11-22T10:02:53;10.80;99.90
52769;DHT22;40471;44.534;18.644;2023-11-22T10:05:19;10.80;99.90
52769;DHT22;40471;44.534;18.644;2023-11-22T10:07:46;10.90;99.90
52769;DHT22;40471;44.534;18.644;2023-11-22T10:10:39;10.90;99.90
52769;DHT22;40471;44.534;18.644;2023-11-22T10:13:30;10.90;99.90
52769;DHT22;40471;44.534;18.644;2023-11-22T10:16:11;11.10;99.90
52769;DHT22;40471;44.534;18.644;2023-11-22T10:18:45;11.10;99.90
52769;DHT22;40471;44.534;18.644;2023-11-22T10:21:21;11.10;99.90
52769;DHT22;40471;44.534;18.644;2023-11-22T10:24:29;11.10;99.90
52769;DHT22;40471;44.534;18.644;2023-11-22T10:27:02;11.00;99.90
52769;DHT22;40471;44.534;18.644;2023-11-22T10:29:28;11.10;99.90
52769;DHT22;40471;44.534;18.644;2023-11-22T10:31:54;11.20;99.90
52769;DHT22;40471;44.534;18.644;2023-11-22T10:34:24;11.00;99.90
52769;DHT22;40471;44.534;18.644;2023-11-22T10:36:51;11.10;99.90
52769;DHT22;40471;44.534;18.644;2023-11-22T10:39:20;11.00;99.90
52769;DHT22;40471;44.534;18.644;2023-11-22T10:41:46;11.00;99.90
52769;DHT22;40471;44.534;18.644;2023-11-22T10:45:00;11.00;99.90
52769;DHT22;40471;44.534;18.644;2023-11-22T10:57:55;10.90;99.90
52769;DHT22;40471;44.534;18.644;2023-11-22T11:00:23;9.70;99.90
52769;DHT22;40471;44.534;18.644;2023-11-22T11:03:03;11.00;99.90
52769;DHT22;40471;44.534;18.644;2023-11-22T11:05:31;11.00;99.90
52769;DHT22;40471;44.534;18.644;2023-11-22T11:08:11;11.00;99.90
52769;DHT22;40471;44.534;18.644;2023-11-22T11:10:44;11.00;99.90
52769;DHT22;40471;44.534;18.644;2023-11-22T11:13:13;10.90;99.90
52769;DHT22;40471;44.534;18.644;2023-11-22T11:15:40;11.00;99.90
52769;DHT22;40471;44.534;18.644;2023-11-22T11:18:12;11.00;99.90
52769;DHT22;40471;44.534;18.644;2023-11-22T11:20:56;11.00;99.90
52769;DHT22;40471;44.534;18.644;2023-11-22T11:23:34;11.00;99.90
52769;DHT22;40471;44.534;18.644;2023-11-22T11:26:16;11.10;99.90
52769;DHT22;40471;44.534;18.644;2023-11-22T11:28:45;11.00;99.90
52769;DHT22;40471;44.534;18.644;2023-11-22T11:31:11;10.90;99.90
52769;DHT22;40471;44.534;18.644;2023-11-22T11:33:52;11.00;99.90
52769;DHT22;40471;44.534;18.644;2023-11-22T11:36:33;10.90;99.90
52769;DHT22;40471;44.534;18.644;2023-11-22T11:39:05;10.90;99.90
52769;DHT22;40471;44.534;18.644;2023-11-22T11:41:34;11.00;99.90
52769;DHT22;40471;44.534;18.644;2023-11-22T11:44:03;11.20;99.90
52769;DHT22;40471;44.534;18.644;2023-11-22T11:46:30;11.00;99.90
52769;DHT22;40471;44.534;18.644;2023-11-22T11:48:56;11.20;99.90
52769;DHT22;40471;44.534;18.644;2023-11-22T11:51:26;11.10;99.90
52769;DHT22;40471;44.534;18.644;2023-11-22T11:53:52;11.00;99.90
52769;DHT22;40471;44.534;18.644;2023-11-22T11:56:19;11.10;99.90
52769;DHT22;40471;44.534;18.644;2023-11-22T11:58:47;11.20;99.90
52769;DHT22;40471;44.534;18.644;2023-11-22T12:01:18;11.20;99.90
52769;DHT22;40471;44.534;18.644;2023-11-22T12:03:49;11.70;99.90
52769;DHT22;40471;44.534;18.644;2023-11-22T12:06:19;11.20;99.90
52769;DHT22;40471;44.534;18.644;2023-11-22T12:08:45;11.20;99.90
52769;DHT22;40471;44.534;18.644;2023-11-22T12:11:15;11.20;99.90
52769;DHT22;40471;44.534;18.644;2023-11-22T12:13:43;11.10;99.90
52769;DHT22;40471;44.534;18.644;2023-11-22T12:16:16;11.20;99.90
52769;DHT22;40471;44.534;18.644;2023-11-22T12:18:43;11.10;99.90
52769;DHT22;40471;44.534;18.644;2023-11-22T12:21:13;11.00;99.90
52769;DHT22;40471;44.534;18.644;2023-11-22T12:23:42;11.00;99.90
52769;DHT22;40471;44.534;18.644;2023-11-22T12:26:16;11.00;99.90
52769;DHT22;40471;44.534;18.644;2023-11-22T12:28:45;10.10;99.90
52769;DHT22;40471;44.534;18.644;2023-11-22T12:31:12;11.00;99.90
52769;DHT22;40471;44.534;18.644;2023-11-22T12:33:40;11.10;99.90
52769;DHT22;40471;44.534;18.644;2023-11-22T12:36:07;11.10;99.90
52769;DHT22;40471;44.534;18.644;2023-11-22T12:38:37;11.40;99.90
52769;DHT22;40471;44.534;18.644;2023-11-22T12:41:05;11.00;99.90
52769;DHT22;40471;44.534;18.644;2023-11-22T12:43:35;10.80;99.90
52769;DHT22;40471;44.534;18.644;2023-11-22T12:46:07;10.80;99.90
52769;DHT22;40471;44.534;18.644;2023-11-22T12:48:37;10.70;99.90
52769;DHT22;40471;44.534;18.644;2023-11-22T12:51:03;10.80;99.90
52769;DHT22;40471;44.534;18.644;2023-11-22T12:53:40;10.70;99.90
52769;DHT22;40471;44.534;18.644;2023-11-22T12:56:06;10.80;99.90
52769;DHT22;40471;44.534;18.644;2023-11-22T12:58:33;10.90;99.90
52769;DHT22;40471;44.534;18.644;2023-11-22T13:00:59;10.90;99.90
52769;DHT22;40471;44.534;18.644;2023-11-22T13:03:26;10.90;99.90
52769;DHT22;40471;44.534;18.644;2023-11-22T13:05:56;11.30;99.90
52769;DHT22;40471;44.534;18.644;2023-11-22T13:08:32;10.90;99.90
52769;DHT22;40471;44.534;18.644;2023-11-22T13:11:01;10.80;99.90
52769;DHT22;40471;44.534;18.644;2023-11-22T13:13:27;11.60;99.90
52769;DHT22;40471;44.534;18.644;2023-11-22T13:15:53;10.80;99.90
52769;DHT22;40471;44.534;18.644;2023-11-22T13:18:20;10.80;99.90
52769;DHT22;40471;44.534;18.644;2023-11-22T13:20:47;10.70;99.90
52769;DHT22;40471;44.534;18.644;2023-11-22T13:23:14;10.70;99.90
52769;DHT22;40471;44.534;18.644;2023-11-22T13:25:40;10.80;99.90
52769;DHT22;40471;44.534;18.644;2023-11-22T13:28:12;10.80;99.90
52769;DHT22;40471;44.534;18.644;2023-11-22T13:30:38;10.70;99.90
52769;DHT22;40471;44.534;18.644;2023-11-22T13:33:04;10.80;99.90
52769;DHT22;40471;44.534;18.644;2023-11-22T13:35:31;10.80;99.90
52769;DHT22;40471;44.534;18.644;2023-11-22T13:37:58;10.80;99.90
52769;DHT22;40471;44.534;18.644;2023-11-22T13:40:25;10.90;99.90
52769;DHT22;40471;44.534;18.644;2023-11-22T13:42:55;10.90;99.90
52769;DHT22;40471;44.534;18.644;2023-11-22T13:45:21;10.90;99.90
52769;DHT22;40471;44.534;18.644;2023-11-22T13:47:51;10.90;99.90
52769;DHT22;40471;44.534;18.644;2023-11-22T13:50:28;10.90;99.90
52769;DHT22;40471;44.534;18.644;2023-11-22T13:52:55;10.80;99.90
52769;DHT22;40471;44.534;18.644;2023-11-22T13:55:22;10.80;99.90
